Station: Texas  

  Atmospheric Gas Attenuation - ITU Rec 676-11   ----------------- dB/100km -----------------
Date Time Temp RH % AH g/m3 Dew Point Wind Direction Speed kph Gust kph Barometer mB Rainfall Since 9am 24GHz 47GHz 76GHz 122GHz 134GHz 241GHz
08/05 09:00 10 51 4.79 0.3 4 1013.1 0 11.6 21.0 26.8 69.7 54.1 182.6
07/05 09:00 14.5 68 8.46 8.7 0 1013.1 0 19.3 25.5 38.9 102.0 95.7 329.1
06/05 09:00 17.2 100 14.64 17.2 0 1013.1 2 32.3 35.3 63.9 168.7 178.6 619.1
05/05 09:00 21 67 12.27 14.8 4 1013.1 0 27.0 29.7 50.6 133.4 136.6 472.9
04/05 09:00 19 72 11.73 13.8 4 1013.1 0 26.0 29.4 49.7 130.8 132.7 459.2
03/05 09:00 20 58 10.02 11.6 4 1013.1 0 22.3 26.3 42.2 110.9 108.6 374.9
02/05 09:00 21 67 12.27 14.6 4 1013.1 0 27.0 29.7 50.6 133.4 136.6 472.9
01/05 09:00 18.6 66 10.5 12.2 4 1013.1 0 23.4 27.5 44.9 118.0 116.8 403.6
30/04 09:00 21 51 9.34 10.5 17 1013.1 0 20.8 25.0 39.1 102.7 98.7 340.6
29/04 09:00 20 60 10.37 12 1013.1 0 23.0 26.9 43.6 114.6 113.1 390.6
28/04 09:00 17.7 58 8.75 9.4 4 1013.1 0 19.7 25.0 38.5 100.9 95.5 328.8
27/04 09:00 19.2 62 10.22 11.7 9 1013.1 0 22.8 26.9 43.4 114.2 112.3 387.8
26/04 09:00 16.7 63 8.95 9.7 4 1013.1 0 20.2 25.6 39.7 104.3 99.3 341.9
25/04 09:00 20 56 9.68 11 4 1013.1 21.6 25.8 40.9 107.4 104.3 359.8
24/04 09:00 18.5 54 8.54 9.1 1013.1 0 19.2 24.5 37.3 97.8 91.9 316.4
23/04 09:00 18.5 50 7.91 7.9 17 1013.1 0 17.9 23.5 35.0 91.6 84.2 289.4
22/04 09:00 18.4 54 8.49 9 1013.1 0 19.1 24.4 37.2 97.4 91.4 314.6
21/04 09:00 17.4 53 7.85 7.9 4 1013.1 0 17.8 23.7 35.2 92.3 84.7 290.8
20/04 09:00 17.5 62 9.24 10.1 9 1013.1 0 20.8 25.8 40.5 106.3 102.0 351.4
19/04 09:00 18.7 61 9.77 11.1 4 1013.1 0 21.8 26.3 41.9 110.2 107.2 369.8
18/04 09:00 19.7 37 6.28 4.9 4 1013.1 0 14.4 20.9 28.7 75.0 64.2 219.1
17/04 09:00 20.3 55 9.67 11.1 4 1013.1 0 21.5 25.7 40.7 106.9 103.7 358.0
16/04 09:00 18.6 53 8.43 9 4 1013.1 0 19.0 24.3 36.8 96.6 90.4 311.2
15/04 09:00 19.2 66 10.88 12.7 0 1013.1 0 24.2 28.0 46.1 121.2 120.9 418.0
14/04 09:00 17.1 56 8.15 8.2 4 1013.1 0 18.5 24.3 36.5 95.6 88.7 304.9
13/04 09:00 15 44 5.64 3 4 1013.1 0 13.3 21.1 28.2 73.4 60.5 205.8
12/04 09:00 18.2 41 6.37 4.9 4 1013.1 0 14.7 21.4 29.6 77.2 66.4 226.8
11/04 09:00 25 61 14.04 17 4 1013.1 0 30.5 31.2 55.2 145.7 153.0 530.6
10/04 09:00 24.2 57 12.54 15.3 9 1013.1 0 27.4 29.0 49.7 131.0 134.6 466.2
09/04 09:00 25 51 11.74 14.2 4 1013.1 0 25.6 27.5 46.1 121.4 123.0 425.9
08/04 09:00 23.5 48 10.15 12 4 1013.1 0 22.4 25.5 40.9 107.5 105.4 364.4
07/04 09:00 22.5 62 12.38 15 4 1013.1 0 27.1 29.3 50.1 132.1 135.4 469.0
06/04 09:00 19.7 60 10.19 11.9 4 1013.1 0 22.7 26.7 43.0 113.1 111.2 384.0
05/04 09:00 23.3 51 10.66 12.8 9 1013.1 0 23.5 26.4 42.9 112.9 112.0 387.3
04/04 09:00 23 54 11.1 13.3 4 1013.1 0 24.4 27.1 44.7 117.8 118.0 408.1
03/04 09:00 22 62 12.03 14.4 4 1013.1 0 26.4 28.9 49.0 129.1 131.6 455.7
02/04 09:00 22.5 56 11.18 13.3 4 1013.1 0 24.6 27.4 45.3 119.4 119.7 414.3
01/04 09:00 22.5 62 12.38 15 4 1013.1 0 27.1 29.3 50.1 132.1 135.4 469.0
31/03 09:00 21.2 57 10.56 12.3 4 1013.1 0 23.4 26.8 43.7 114.8 113.8 393.2
30/03 09:00 20.5 61 10.85 12.8 4 1013.1 0 24.0 27.5 45.2 118.9 118.5 409.8
29/03 09:00 20.5 56 9.96 11.6 4 1013.1 0 22.1 26.1 41.7 109.6 107.1 369.9
28/03 09:00 16 57 7.77 7.5 0 1013.1 0 17.7 24.0 35.5 93.1 85.2 292.5
27/03 09:00 18 57 8.75 9.4 24 1013.1 0.4 19.7 24.9 38.3 100.6 95.1 327.5
26/03 09:00 24 65 14.14 17.1 4 1013.1 0 30.7 31.7 56.4 148.7 156.3 542.3
24/03 09:00 24.4 54 12.02 14.6 9 1013.1 0 26.3 28.1 47.5 125.2 127.5 441.6
23/03 09:00 23.2 63 13.1 15.8 4 1013.1 0 28.6 30.3 52.6 138.7 143.8 498.3
22/03 09:00 22 70 13.58 16.3 4 1013.1 11 29.7 31.5 55.4 146.2 152.6 529.1
21/03 09:00 24 60 13.05 15.8 4 1013.1 0 28.4 29.9 51.9 136.8 141.6 490.9
20/03 09:00 20.5 76 13.52 16.2 2 1013.1 0.4 29.7 32.0 56.2 148.4 154.8 536.5
19/03 09:00 23 67 13.77 16.5 4 1013.1 0 30.0 31.5 55.5 146.5 153.3 531.4
18/03 09:00 25.5 55 13.02 15.8 1013.1 0 28.3 29.4 50.8 133.9 138.5 480.3
17/03 09:00 24.4 55 12.24 15 4 1013.1 0 26.7 28.5 48.4 127.5 130.3 451.5
16/03 09:00 22.9 56 11.44 13.7 4 1013.1 0 25.1 27.7 46.1 121.5 122.5 423.8
15/03 09:00 22 54 10.48 12.4 4 1013.1 0 23.2 26.5 42.9 112.9 111.6 385.7
14/03 09:00 24.5 50 11.19 13.5 9 1013.1 0 24.5 26.8 44.3 116.5 116.9 404.4
13/03 09:00 28.5 59 16.49 19.9 4 1013.1 1 35.3 34.0 62.8 165.9 178.8 621.2
12/03 09:00 27 53 13.64 16.6 4 1013.1 0 29.5 29.9 52.2 137.8 143.9 499.1
11/03 09:00 24.5 57 12.76 15.5 1013.1 0 27.8 29.3 50.4 132.8 136.9 474.5
10/03 09:00 26 48 11.69 14.4 1013.1 0 25.5 27.1 45.3 119.3 120.8 418.4
09/03 09:00 25 57 13.12 16.1 1013.1 0 28.5 29.7 51.5 135.8 140.7 487.9
08/03 09:00 24.2 66 14.52 17.5 4 1013.1 0.1 31.5 32.3 57.8 152.6 161.2 559.1
07/03 09:00 27 59 15.19 18.5 4 1013.1 6 32.7 32.4 58.5 154.6 164.4 570.8
06/03 09:00 27 59 15.19 18.5 9 1013.1 0 32.7 32.4 58.5 154.6 164.4 570.8
05/03 09:00 25 54 12.43 15.1 4 1013.1 0 27.1 28.6 48.7 128.5 131.8 456.6
04/03 09:00 25.2 53 12.34 15 4 1013.1 0 26.9 28.4 48.3 127.2 130.3 451.4
03/03 09:00 25 51 11.74 14.4 4 1013.1 0 25.6 27.5 46.1 121.4 123.0 425.9
02/03 09:00 25.5 51 12.07 14.8 4 1013.1 0 26.3 27.9 47.1 124.0 126.3 437.7
01/03 09:00 26 49 11.93 14.6 4 1013.1 0 26.0 27.5 46.2 121.8 123.8 428.8
28/02 09:00 25 51 11.74 14.4 4 1013.1 3 25.6 27.5 46.1 121.4 123.0 425.9
27/02 09:00 27 50 12.87 15.7 17 1013.1 0 27.9 28.6 49.2 129.8 134.0 464.6
26/02 09:00 26 51 12.42 15.2 17 1013.1 0 27.0 28.3 48.1 126.8 130.0 450.4
25/02 09:00 27.2 52 13.53 16.7 2 1013.1 0 29.2 29.6 51.7 136.3 142.1 492.8
24/02 09:00 27.8 50 13.45 16.5 4 1013.1 0 29.0 29.3 51.0 134.5 140.0 485.5
23/02 09:00 25.5 61 14.44 17.6 4 1013.1 0 31.3 31.7 56.5 149.2 157.4 546.1
22/02 09:00 26.5 54 13.52 16.6 4 1013.1 0 29.3 29.8 52.1 137.4 143.2 496.8
21/02 09:00 26.2 51 12.56 15.5 4 1013.1 0 27.3 28.4 48.5 127.9 131.4 455.5
20/02 09:00 30 45 13.65 17 4 1013.1 0.1 29.3 28.9 50.3 132.8 138.6 481.0
19/02 09:00 28 63 17.13 20.5 4 1013.1 0 36.7 35.3 65.9 174.3 188.9 656.4
18/02 09:00 23.5 70 14.8 17.8 1013.1 0 32.2 33.0 59.5 157.2 166.6 577.9
17/02 09:00 23 57 11.71 14.1 4 1013.1 0 25.7 28.1 47.1 124.1 125.8 435.4
16/02 09:00 23.7 55 11.76 14.1 9 1013.1 8 25.7 27.9 46.9 123.6 125.3 433.8
15/02 09:00 1013.1
14/02 09:00 24 60 13.05 15.8 17 1013.1 7 28.4 29.9 51.9 136.8 141.6 490.9
13/02 09:00 23.5 83 17.55 20.5 4 1013.1 3 38.0 38.0 71.8 190.0 206.9 718.2
12/02 09:00 30.5 56 17.45 20.8 9 1013.1 0 37.2 34.8 65.2 172.3 187.2 650.8
11/02 09:00 29.2 59 17.13 20.5 1013.1 0 36.6 34.8 64.9 171.6 186.0 646.3
10/02 09:00 26.5 66 16.52 19.6 4 1013.1 1 35.6 34.9 64.6 170.6 184.0 638.9
09/02 09:00 27 56 14.41 17.6 9 1013.1 0 31.1 31.1 55.3 146.1 154.0 534.3
08/02 09:00 26.2 54 13.29 16.2 4 1013.1 0 28.8 29.6 51.4 135.5 140.8 488.2
07/02 09:00 26.8 47 11.96 14.8 4 1013.1 0 26.0 27.3 45.9 120.9 122.9 425.9
06/02 09:00 27 53 13.64 16.6 0 1013.1 0 29.5 29.9 52.2 137.8 143.9 499.1
05/02 09:00 25.5 58 13.73 16.7 4 1013.1 0 29.8 30.5 53.6 141.5 147.9 512.8
04/02 09:00 24.9 51 11.67 14.2 1013.1 0 25.5 27.4 45.9 120.8 122.3 423.3
03/02 09:00 23.5 48 10.15 12 4 1013.1 0 22.4 25.5 40.9 107.5 105.4 364.4
02/02 09:00 30.2 49 15.02 18.4 4 1013.1 0 32.1 31.0 55.5 146.6 155.6 540.3
01/02 09:00 30 47 14.26 17.5 4 1013.1 0 30.6 29.8 52.7 139.1 146.2 507.7
31/01 09:00 27 56 14.41 17.6 4 1013.1 0 31.1 31.1 55.3 146.1 154.0 534.3
30/01 09:00 27 48 12.35 15.1 4 1013.1 0 26.8 27.8 47.2 124.5 127.4 441.7
29/01 09:00 26.2 46 11.32 13.9 4 1013.1 0 24.7 26.5 43.8 115.4 116.0 401.5
28/01 09:00 27.5 53 14.02 17.3 1013.1 0 30.2 30.3 53.4 141.0 147.9 513.1

Last Refresh: 08-May-2026 12:07:29

Bureau of Meteorology